Time;durP1;ratioP1;P1;durP2;ratioP2;P2;SDS_P1;SDS_P2;PMS_P1;PMS_P2;Temp;Humidity;BMP_temperature;BMP_pressure;BME280_temperature;BME280_humidity;BME280_pressure;Samples;Min_cycle;Max_cycle;Signal;HPM_P1;HPM_P2
2024/02/20 00:00:48;;;;;;;;;;;18.60;45.50;;;;;;1591583;73;755;-71
2024/02/20 00:02:50;;;;;;;;;;;18.50;45.50;;;;;;1592900;73;719;-74
2024/02/20 00:04:52;;;;;;;;;;;18.50;45.50;;;;;;1585531;73;793;-75
2024/02/20 00:06:54;;;;;;;;;;;18.50;45.50;;;;;;1593489;73;686;-73
2024/02/20 00:08:56;;;;;;;;;;;18.50;45.50;;;;;;1592054;73;1128;-74
2024/02/20 00:10:59;;;;;;;;;;;18.50;45.50;;;;;;1592420;73;666;-73
2024/02/20 00:13:02;;;;;;;;;;;18.50;45.50;;;;;;1593951;73;689;-72
2024/02/20 00:15:05;;;;;;;;;;;18.50;45.50;;;;;;1594680;73;1917;-74
2024/02/20 00:17:07;;;;;;;;;;;18.50;45.50;;;;;;1593033;73;679;-71
2024/02/20 00:19:09;;;;;;;;;;;18.50;45.50;;;;;;1592215;73;1128;-73
2024/02/20 00:21:11;;;;;;;;;;;18.50;45.50;;;;;;1594813;73;636;-71
2024/02/20 00:23:14;;;;;;;;;;;18.50;45.60;;;;;;1598248;73;712;-72
2024/02/20 00:25:16;;;;;;;;;;;18.50;45.50;;;;;;1595388;73;662;-73
2024/02/20 00:27:18;;;;;;;;;;;18.50;45.50;;;;;;1591153;73;689;-74
2024/02/20 00:29:21;;;;;;;;;;;18.50;45.50;;;;;;1597453;73;1553;-75
2024/02/20 00:31:23;;;;;;;;;;;18.60;45.60;;;;;;1594140;73;719;-74
2024/02/20 00:33:24;;;;;;;;;;;18.50;45.50;;;;;;1594323;73;1939;-73
2024/02/20 00:35:26;;;;;;;;;;;18.50;45.50;;;;;;1592278;73;711;-72
2024/02/20 00:37:30;;;;;;;;;;;18.50;45.50;;;;;;1593528;73;798;-75
2024/02/20 00:39:34;;;;;;;;;;;18.50;45.50;;;;;;1594376;73;1145;-73
2024/02/20 00:41:35;;;;;;;;;;;18.50;45.50;;;;;;1590900;73;1697;-72
2024/02/20 00:43:37;;;;;;;;;;;18.50;45.50;;;;;;1591069;73;700;-75
2024/02/20 00:45:39;;;;;;;;;;;18.50;45.50;;;;;;1593939;73;663;-73
2024/02/20 00:47:41;;;;;;;;;;;18.50;45.50;;;;;;1593531;73;795;-72
2024/02/20 00:49:43;;;;;;;;;;;18.50;45.50;;;;;;1583616;73;1143;-75
2024/02/20 00:51:45;;;;;;;;;;;18.50;45.50;;;;;;1589853;73;619;-73
2024/02/20 00:53:47;;;;;;;;;;;18.50;45.50;;;;;;1593586;73;1925;-74
2024/02/20 00:55:50;;;;;;;;;;;18.50;45.50;;;;;;1594256;73;588;-73
2024/02/20 00:57:52;;;;;;;;;;;18.50;45.50;;;;;;1592834;73;774;-72
2024/02/20 00:59:54;;;;;;;;;;;18.50;45.50;;;;;;1589871;73;1131;-72
2024/02/20 01:01:56;;;;;;;;;;;18.50;45.50;;;;;;1590829;73;667;-71
2024/02/20 01:03:58;;;;;;;;;;;18.40;45.30;;;;;;1594274;73;689;-73
2024/02/20 01:06:00;;;;;;;;;;;18.40;45.40;;;;;;1592154;73;562;-73
2024/02/20 01:08:01;;;;;;;;;;;18.50;45.50;;;;;;1592908;73;800;-71
2024/02/20 01:10:03;;;;;;;;;;;18.50;45.50;;;;;;1593303;73;1135;-74
2024/02/20 01:12:05;;;;;;;;;;;18.50;45.50;;;;;;1598132;73;726;-73
2024/02/20 01:14:07;;;;;;;;;;;18.50;45.50;;;;;;1594445;73;1923;-76
2024/02/20 01:16:09;;;;;;;;;;;18.50;45.40;;;;;;1590745;73;673;-75
2024/02/20 01:18:11;;;;;;;;;;;18.50;45.50;;;;;;1593886;73;734;-74
2024/02/20 01:20:13;;;;;;;;;;;18.60;45.50;;;;;;1595436;72;1133;-73
2024/02/20 01:22:15;;;;;;;;;;;18.50;45.40;;;;;;1594218;73;642;-73
2024/02/20 01:24:16;;;;;;;;;;;18.50;45.50;;;;;;1596797;73;1493;-74
2024/02/20 01:26:18;;;;;;;;;;;18.50;45.40;;;;;;1592306;73;651;-73
2024/02/20 01:28:20;;;;;;;;;;;18.50;45.50;;;;;;1594113;73;778;-71
2024/02/20 01:30:22;;;;;;;;;;;18.50;45.40;;;;;;1593718;73;1109;-75
2024/02/20 01:32:24;;;;;;;;;;;18.50;45.40;;;;;;1601183;73;708;-71
2024/02/20 01:34:26;;;;;;;;;;;18.60;45.50;;;;;;1593264;73;1933;-73
2024/02/20 01:36:28;;;;;;;;;;;18.50;45.40;;;;;;1591364;73;731;-73
2024/02/20 01:38:31;;;;;;;;;;;18.50;45.40;;;;;;1594152;73;680;-71
2024/02/20 01:40:33;;;;;;;;;;;18.50;45.40;;;;;;1591605;73;1226;-75
2024/02/20 01:42:37;;;;;;;;;;;18.60;45.50;;;;;;1593717;73;695;-73
2024/02/20 01:44:39;;;;;;;;;;;18.50;45.50;;;;;;1596195;73;724;-72
2024/02/20 01:46:45;;;;;;;;;;;18.50;45.40;;;;;;1594138;73;732;-74
2024/02/20 01:48:47;;;;;;;;;;;18.50;45.40;;;;;;1591270;73;1168;-73
2024/02/20 01:50:49;;;;;;;;;;;18.50;45.40;;;;;;1595324;73;675;-72
2024/02/20 01:52:51;;;;;;;;;;;18.50;45.40;;;;;;1590733;73;713;-72
2024/02/20 01:54:54;;;;;;;;;;;18.40;45.30;;;;;;1596418;73;1944;-71
2024/02/20 01:56:56;;;;;;;;;;;18.50;45.50;;;;;;1591488;73;767;-73
2024/02/20 01:58:58;;;;;;;;;;;18.50;45.50;;;;;;1591726;73;1081;-75
2024/02/20 02:01:00;;;;;;;;;;;18.50;45.50;;;;;;1593377;73;736;-74
2024/02/20 02:03:02;;;;;;;;;;;18.50;45.50;;;;;;1591544;73;677;-73
2024/02/20 02:05:04;;;;;;;;;;;18.50;45.40;;;;;;1591564;73;655;-74
2024/02/20 02:07:06;;;;;;;;;;;18.50;45.40;;;;;;1593732;73;663;-73
2024/02/20 02:09:08;;;;;;;;;;;18.50;45.40;;;;;;1594547;73;1159;-72
2024/02/20 02:11:10;;;;;;;;;;;18.50;45.40;;;;;;1595376;73;692;-71
2024/02/20 02:13:12;;;;;;;;;;;18.50;45.50;;;;;;1594257;73;659;-72
2024/02/20 02:15:14;;;;;;;;;;;18.50;45.40;;;;;;1592869;73;1913;-73
2024/02/20 02:17:16;;;;;;;;;;;18.50;45.50;;;;;;1587175;73;665;-73
2024/02/20 02:19:17;;;;;;;;;;;18.50;45.40;;;;;;1592638;73;1153;-75
2024/02/20 02:21:19;;;;;;;;;;;18.50;45.40;;;;;;1596435;73;1742;-73
2024/02/20 02:23:21;;;;;;;;;;;18.50;45.40;;;;;;1594428;73;683;-73
2024/02/20 02:25:24;;;;;;;;;;;18.50;45.40;;;;;;1592874;73;705;-75
2024/02/20 02:27:26;;;;;;;;;;;18.50;45.40;;;;;;1594073;73;715;-72
2024/02/20 02:29:28;;;;;;;;;;;18.50;45.40;;;;;;1593964;73;1109;-71
2024/02/20 02:31:30;;;;;;;;;;;18.50;45.40;;;;;;1594320;73;702;-71
2024/02/20 02:33:32;;;;;;;;;;;18.40;45.30;;;;;;1589668;73;824;-73
2024/02/20 02:35:34;;;;;;;;;;;18.50;45.50;;;;;;1590590;73;1945;-73
2024/02/20 02:37:36;;;;;;;;;;;18.50;45.40;;;;;;1589109;73;613;-72
2024/02/20 02:39:38;;;;;;;;;;;18.50;45.40;;;;;;1594501;73;1187;-71
2024/02/20 02:41:40;;;;;;;;;;;18.50;45.40;;;;;;1594170;73;750;-72
2024/02/20 02:43:42;;;;;;;;;;;18.50;45.40;;;;;;1594405;73;763;-72
2024/02/20 02:45:44;;;;;;;;;;;18.50;45.40;;;;;;1594415;73;741;-72
2024/02/20 02:47:45;;;;;;;;;;;18.50;45.30;;;;;;1587951;73;582;-73
2024/02/20 02:49:47;;;;;;;;;;;18.50;45.40;;;;;;1593393;73;1127;-71
2024/02/20 02:51:50;;;;;;;;;;;18.50;45.40;;;;;;1590954;73;683;-71
2024/02/20 02:53:52;;;;;;;;;;;18.50;45.40;;;;;;1595824;73;765;-74
2024/02/20 02:55:54;;;;;;;;;;;18.50;45.40;;;;;;1592203;73;1929;-75
2024/02/20 02:57:56;;;;;;;;;;;18.50;45.40;;;;;;1593425;73;657;-73
2024/02/20 02:59:57;;;;;;;;;;;18.50;45.30;;;;;;1594314;73;1161;-73
2024/02/20 03:02:00;;;;;;;;;;;18.50;45.30;;;;;;1593237;73;666;-73
2024/02/20 03:04:04;;;;;;;;;;;18.50;45.30;;;;;;1594346;73;680;-72
2024/02/20 03:06:08;;;;;;;;;;;18.50;45.30;;;;;;1591045;73;1963;-72
2024/02/20 03:08:10;;;;;;;;;;;18.50;45.30;;;;;;1604817;73;800;-74
2024/02/20 03:10:12;;;;;;;;;;;18.50;45.40;;;;;;1593406;73;1151;-75
2024/02/20 03:12:14;;;;;;;;;;;18.50;45.30;;;;;;1596840;73;631;-75
2024/02/20 03:14:16;;;;;;;;;;;18.50;45.20;;;;;;1593680;73;1933;-73
2024/02/20 03:16:18;;;;;;;;;;;18.40;45.20;;;;;;1592866;73;687;-70
2024/02/20 03:18:22;;;;;;;;;;;18.50;45.30;;;;;;1598035;73;1648;-74
2024/02/20 03:20:24;;;;;;;;;;;18.50;45.30;;;;;;1593253;73;1351;-74
2024/02/20 03:22:26;;;;;;;;;;;18.50;45.30;;;;;;1594137;73;698;-72
2024/02/20 03:24:27;;;;;;;;;;;18.50;45.40;;;;;;1597786;73;654;-71
2024/02/20 03:26:29;;;;;;;;;;;18.50;45.30;;;;;;1595863;73;676;-73
2024/02/20 03:28:31;;;;;;;;;;;18.50;45.40;;;;;;1598471;73;824;-71
2024/02/20 03:30:33;;;;;;;;;;;18.50;45.30;;;;;;1594522;73;1140;-74
2024/02/20 03:32:35;;;;;;;;;;;18.50;45.30;;;;;;1593528;73;731;-73
2024/02/20 03:34:37;;;;;;;;;;;18.50;45.30;;;;;;1593857;73;1929;-74
2024/02/20 03:36:39;;;;;;;;;;;18.50;45.30;;;;;;1591203;73;700;-74
2024/02/20 03:38:41;;;;;;;;;;;18.50;45.30;;;;;;1596800;73;1128;-72
2024/02/20 03:40:43;;;;;;;;;;;18.50;45.30;;;;;;1594134;73;742;-73
2024/02/20 03:42:44;;;;;;;;;;;18.50;45.30;;;;;;1592578;73;748;-72
2024/02/20 03:44:46;;;;;;;;;;;18.50;45.30;;;;;;1593395;73;729;-73
2024/02/20 03:46:48;;;;;;;;;;;18.50;45.30;;;;;;1590520;73;646;-73
2024/02/20 03:48:50;;;;;;;;;;;18.50;45.30;;;;;;1594246;73;1161;-71
2024/02/20 03:50:52;;;;;;;;;;;18.50;45.30;;;;;;1594004;73;653;-73
2024/02/20 03:52:54;;;;;;;;;;;18.50;45.40;;;;;;1593719;73;756;-72
2024/02/20 03:54:56;;;;;;;;;;;18.50;45.30;;;;;;1595463;73;1934;-72
2024/02/20 03:56:58;;;;;;;;;;;18.50;45.30;;;;;;1585995;73;621;-73
2024/02/20 03:58:59;;;;;;;;;;;18.50;45.30;;;;;;1592733;73;1132;-72
2024/02/20 04:01:01;;;;;;;;;;;18.50;45.30;;;;;;1594257;73;648;-73
2024/02/20 04:03:03;;;;;;;;;;;18.50;45.30;;;;;;1594108;73;620;-73
2024/02/20 04:05:06;;;;;;;;;;;18.50;45.20;;;;;;1592022;73;731;-73
2024/02/20 04:07:08;;;;;;;;;;;18.50;45.30;;;;;;1594912;73;674;-74
2024/02/20 04:09:10;;;;;;;;;;;18.50;45.30;;;;;;1597873;73;1144;-74
2024/02/20 04:11:13;;;;;;;;;;;18.50;45.30;;;;;;1592686;73;559;-71
2024/02/20 04:13:15;;;;;;;;;;;18.50;45.30;;;;;;1592181;73;1450;-72
2024/02/20 04:15:17;;;;;;;;;;;18.50;45.30;;;;;;1592218;73;1945;-73
2024/02/20 04:17:18;;;;;;;;;;;18.50;45.30;;;;;;1599433;73;693;-74
2024/02/20 04:19:20;;;;;;;;;;;18.40;45.20;;;;;;1597197;73;1136;-72
2024/02/20 04:21:22;;;;;;;;;;;18.40;45.20;;;;;;1593783;73;611;-72
2024/02/20 04:23:24;;;;;;;;;;;18.50;45.30;;;;;;1596842;73;704;-71
2024/02/20 04:25:26;;;;;;;;;;;18.50;45.30;;;;;;1592203;73;667;-73
2024/02/20 04:27:29;;;;;;;;;;;18.50;45.20;;;;;;1596336;73;813;-74
2024/02/20 04:29:31;;;;;;;;;;;18.40;45.20;;;;;;1590979;73;1156;-72
2024/02/20 04:31:33;;;;;;;;;;;18.50;45.20;;;;;;1592286;73;717;-74
2024/02/20 04:33:34;;;;;;;;;;;18.50;45.30;;;;;;1593985;73;755;-71
2024/02/20 04:35:36;;;;;;;;;;;18.50;45.30;;;;;;1591278;73;1933;-72
2024/02/20 04:37:38;;;;;;;;;;;18.50;45.20;;;;;;1595661;73;672;-75
2024/02/20 04:39:40;;;;;;;;;;;18.50;45.30;;;;;;1593612;73;1143;-74
2024/02/20 04:41:42;;;;;;;;;;;18.40;45.20;;;;;;1593505;73;774;-71
2024/02/20 04:43:44;;;;;;;;;;;18.50;45.20;;;;;;1590993;73;648;-75
2024/02/20 04:45:47;;;;;;;;;;;18.50;45.30;;;;;;1593995;73;639;-74
2024/02/20 04:47:49;;;;;;;;;;;18.40;45.10;;;;;;1593936;73;664;-72
2024/02/20 04:49:52;;;;;;;;;;;18.50;45.20;;;;;;1591155;73;1176;-74
2024/02/20 04:51:54;;;;;;;;;;;18.40;45.10;;;;;;1593668;73;736;-72
2024/02/20 04:53:56;;;;;;;;;;;18.50;45.30;;;;;;1595487;73;717;-73
2024/02/20 04:55:57;;;;;;;;;;;18.50;45.20;;;;;;1592319;73;1932;-74
2024/02/20 04:57:59;;;;;;;;;;;18.40;45.10;;;;;;1594436;73;735;-74
2024/02/20 05:00:01;;;;;;;;;;;18.50;45.20;;;;;;1592378;73;1100;-74
2024/02/20 05:02:03;;;;;;;;;;;18.50;45.20;;;;;;1593654;73;750;-73
2024/02/20 05:04:05;;;;;;;;;;;18.50;45.20;;;;;;1594995;73;803;-74
2024/02/20 05:06:07;;;;;;;;;;;18.40;45.10;;;;;;1593145;73;638;-76
2024/02/20 05:08:09;;;;;;;;;;;18.50;45.20;;;;;;1599897;73;763;-73
2024/02/20 05:10:11;;;;;;;;;;;18.40;45.10;;;;;;1596218;73;1505;-74
2024/02/20 05:12:13;;;;;;;;;;;18.40;45.10;;;;;;1594261;73;647;-73
2024/02/20 05:14:15;;;;;;;;;;;18.40;45.00;;;;;;1592882;73;731;-74
2024/02/20 05:16:16;;;;;;;;;;;18.50;45.20;;;;;;1592490;73;1918;-73
2024/02/20 05:18:18;;;;;;;;;;;18.50;45.20;;;;;;1596297;73;699;-73
2024/02/20 05:20:20;;;;;;;;;;;18.50;45.20;;;;;;1594213;73;1122;-76
2024/02/20 05:22:22;;;;;;;;;;;18.50;45.20;;;;;;1595019;73;719;-74
2024/02/20 05:24:24;;;;;;;;;;;18.50;45.20;;;;;;1596638;73;666;-75
2024/02/20 05:26:26;;;;;;;;;;;18.50;45.20;;;;;;1592353;73;695;-72
2024/02/20 05:28:28;;;;;;;;;;;18.50;45.20;;;;;;1599733;73;689;-73
2024/02/20 05:30:30;;;;;;;;;;;18.50;45.20;;;;;;1592365;72;1105;-73
2024/02/20 05:32:32;;;;;;;;;;;18.40;45.00;;;;;;1593811;73;695;-70
2024/02/20 05:34:33;;;;;;;;;;;18.50;45.20;;;;;;1594437;73;723;-74
2024/02/20 05:36:35;;;;;;;;;;;18.50;45.20;;;;;;1589158;73;1929;-71
2024/02/20 05:38:37;;;;;;;;;;;18.50;45.20;;;;;;1590502;73;1148;-76
2024/02/20 05:40:39;;;;;;;;;;;18.50;45.10;;;;;;1591730;73;761;-73
2024/02/20 05:42:41;;;;;;;;;;;18.40;45.00;;;;;;1594320;73;690;-73
2024/02/20 05:44:43;;;;;;;;;;;18.50;45.10;;;;;;1596238;73;627;-75
2024/02/20 05:46:45;;;;;;;;;;;18.40;45.00;;;;;;1589807;73;730;-73
2024/02/20 05:48:47;;;;;;;;;;;18.40;45.00;;;;;;1595591;73;1168;-73
2024/02/20 05:50:49;;;;;;;;;;;18.40;45.00;;;;;;1591982;73;695;-72
2024/02/20 05:52:50;;;;;;;;;;;18.50;45.10;;;;;;1590040;73;671;-73
2024/02/20 05:54:52;;;;;;;;;;;18.50;45.20;;;;;;1593178;73;689;-71
2024/02/20 05:56:54;;;;;;;;;;;18.40;45.00;;;;;;1590253;73;1945;-73
2024/02/20 05:58:56;;;;;;;;;;;18.40;45.00;;;;;;1593976;73;1105;-72
2024/02/20 06:00:58;;;;;;;;;;;18.40;45.00;;;;;;1593923;73;607;-73
2024/02/20 06:03:00;;;;;;;;;;;18.50;45.20;;;;;;1595195;73;604;-74
2024/02/20 06:05:02;;;;;;;;;;;18.50;45.20;;;;;;1592934;73;743;-73
2024/02/20 06:07:04;;;;;;;;;;;18.40;45.00;;;;;;1590278;73;1653;-73
2024/02/20 06:09:07;;;;;;;;;;;18.50;45.20;;;;;;1597712;73;1111;-73
2024/02/20 06:11:14;;;;;;;;;;;18.50;45.10;;;;;;1595880;73;676;-73
2024/02/20 06:13:16;;;;;;;;;;;18.40;45.00;;;;;;1591860;73;1731;-73
2024/02/20 06:15:18;;;;;;;;;;;18.40;45.00;;;;;;1593336;73;644;-71
2024/02/20 06:17:20;;;;;;;;;;;18.50;45.10;;;;;;1599732;73;671;-71
2024/02/20 06:19:22;;;;;;;;;;;18.50;45.20;;;;;;1593683;73;1105;-74
2024/02/20 06:21:24;;;;;;;;;;;18.50;45.10;;;;;;1592297;73;658;-73
2024/02/20 06:23:26;;;;;;;;;;;18.40;45.00;;;;;;1594071;73;570;-74
2024/02/20 06:25:28;;;;;;;;;;;18.50;45.20;;;;;;1593348;73;720;-74
2024/02/20 06:27:29;;;;;;;;;;;18.40;45.00;;;;;;1595137;73;780;-71
2024/02/20 06:29:31;;;;;;;;;;;18.40;45.00;;;;;;1591119;73;1135;-71
2024/02/20 06:31:36;;;;;;;;;;;18.40;45.00;;;;;;1592096;73;663;-73
2024/02/20 06:33:37;;;;;;;;;;;18.40;45.00;;;;;;1592418;73;1632;-73
2024/02/20 06:35:39;;;;;;;;;;;18.40;45.00;;;;;;1591214;73;1930;-72
2024/02/20 06:37:40;;;;;;;;;;;18.40;45.00;;;;;;1592017;73;580;-73
2024/02/20 06:39:42;;;;;;;;;;;18.50;45.20;;;;;;1591610;73;1135;-71
2024/02/20 06:41:44;;;;;;;;;;;18.40;45.10;;;;;;1592484;73;668;-74
2024/02/20 06:43:46;;;;;;;;;;;18.40;45.00;;;;;;1592075;73;636;-74
2024/02/20 06:45:48;;;;;;;;;;;18.50;45.20;;;;;;1594135;73;782;-71
2024/02/20 06:47:50;;;;;;;;;;;18.40;45.00;;;;;;1593887;73;688;-74
2024/02/20 06:49:52;;;;;;;;;;;18.40;45.00;;;;;;1593098;73;1173;-73
2024/02/20 06:51:54;;;;;;;;;;;18.40;45.00;;;;;;1591816;73;724;-73
2024/02/20 06:53:56;;;;;;;;;;;18.40;45.10;;;;;;1594659;73;651;-73
2024/02/20 06:55:58;;;;;;;;;;;18.40;45.00;;;;;;1591936;73;1906;-74
2024/02/20 06:58:00;;;;;;;;;;;18.50;45.10;;;;;;1593868;73;724;-74
2024/02/20 07:00:03;;;;;;;;;;;18.50;45.20;;;;;;1590427;73;1151;-72
2024/02/20 07:02:05;;;;;;;;;;;18.50;45.20;;;;;;1589265;73;1494;-73
2024/02/20 07:04:09;;;;;;;;;;;18.50;45.20;;;;;;1591674;73;675;-71
2024/02/20 07:06:10;;;;;;;;;;;18.50;45.20;;;;;;1590198;73;1909;-71
2024/02/20 07:08:12;;;;;;;;;;;18.50;45.20;;;;;;1592105;73;558;-74
2024/02/20 07:10:14;;;;;;;;;;;18.40;45.00;;;;;;1595837;73;1151;-75
2024/02/20 07:12:16;;;;;;;;;;;18.40;45.00;;;;;;1593557;73;588;-73
2024/02/20 07:14:19;;;;;;;;;;;18.40;45.00;;;;;;1592819;73;673;-74
2024/02/20 07:16:21;;;;;;;;;;;18.50;45.10;;;;;;1592570;73;1940;-73
2024/02/20 07:18:22;;;;;;;;;;;18.40;45.00;;;;;;1592366;73;701;-72
2024/02/20 07:20:24;;;;;;;;;;;18.40;45.00;;;;;;1596416;73;1132;-74
2024/02/20 07:22:28;;;;;;;;;;;18.50;45.10;;;;;;1590987;73;689;-73
2024/02/20 07:24:30;;;;;;;;;;;18.50;45.10;;;;;;1593159;72;1846;-71
2024/02/20 07:26:32;;;;;;;;;;;18.40;45.00;;;;;;1592867;73;690;-71
2024/02/20 07:28:33;;;;;;;;;;;18.50;45.10;;;;;;1591076;73;653;-71
2024/02/20 07:30:35;;;;;;;;;;;18.50;45.10;;;;;;1591360;73;1149;-71
2024/02/20 07:32:39;;;;;;;;;;;18.50;45.10;;;;;;1589828;73;632;-74
2024/02/20 07:34:41;;;;;;;;;;;18.40;44.90;;;;;;1594297;73;691;-72
2024/02/20 07:36:48;;;;;;;;;;;18.50;45.10;;;;;;1591219;73;1926;-72
2024/02/20 07:38:46;;;;;;;;;;;18.50;45.10;;;;;;1594041;73;1668;-73
2024/02/20 07:40:48;;;;;;;;;;;18.50;45.00;;;;;;1591337;73;731;-72
2024/02/20 07:42:50;;;;;;;;;;;18.40;44.90;;;;;;1593377;73;666;-75
2024/02/20 07:44:52;;;;;;;;;;;18.40;44.90;;;;;;1593889;73;683;-75
2024/02/20 07:46:54;;;;;;;;;;;18.50;45.10;;;;;;1587180;73;669;-72
2024/02/20 07:48:56;;;;;;;;;;;18.50;45.10;;;;;;1592517;73;1178;-73
2024/02/20 07:50:58;;;;;;;;;;;18.50;45.10;;;;;;1585114;73;656;-74
2024/02/20 07:53:00;;;;;;;;;;;18.40;44.90;;;;;;1592389;73;610;-74
2024/02/20 07:55:02;;;;;;;;;;;18.50;45.10;;;;;;1594588;73;582;-72
2024/02/20 07:57:04;;;;;;;;;;;18.40;44.90;;;;;;1589222;73;1905;-74
2024/02/20 07:59:06;;;;;;;;;;;18.50;45.00;;;;;;1595285;73;1523;-74
2024/02/20 08:01:09;;;;;;;;;;;18.50;45.00;;;;;;1589334;73;691;-74
2024/02/20 08:03:13;;;;;;;;;;;18.40;45.00;;;;;;1590567;73;586;-73
2024/02/20 08:05:15;;;;;;;;;;;18.40;44.90;;;;;;1590784;73;655;-71
2024/02/20 08:07:17;;;;;;;;;;;18.40;44.90;;;;;;1599905;73;610;-73
2024/02/20 08:09:19;;;;;;;;;;;18.40;44.90;;;;;;1592427;73;1133;-71
2024/02/20 08:11:21;;;;;;;;;;;18.40;44.90;;;;;;1594609;73;662;-73
2024/02/20 08:13:24;;;;;;;;;;;18.40;44.90;;;;;;1592428;73;686;-74
2024/02/20 08:15:26;;;;;;;;;;;18.40;44.90;;;;;;1591862;73;657;-73
2024/02/20 08:17:28;;;;;;;;;;;18.50;45.00;;;;;;1595424;73;1938;-72
2024/02/20 08:19:30;;;;;;;;;;;18.40;44.80;;;;;;1593324;73;1135;-74
2024/02/20 08:21:32;;;;;;;;;;;18.50;45.00;;;;;;1590073;73;661;-72
2024/02/20 08:23:35;;;;;;;;;;;18.50;45.00;;;;;;1594357;73;584;-72
2024/02/20 08:25:37;;;;;;;;;;;18.40;44.90;;;;;;1591662;73;2051;-74
2024/02/20 08:27:39;;;;;;;;;;;18.50;45.00;;;;;;1592658;73;700;-74
2024/02/20 08:29:41;;;;;;;;;;;18.40;44.80;;;;;;1589490;73;1130;-71
2024/02/20 08:31:43;;;;;;;;;;;18.40;44.80;;;;;;1592948;73;639;-72
2024/02/20 08:33:45;;;;;;;;;;;18.50;45.00;;;;;;1590196;73;631;-75
2024/02/20 08:35:47;;;;;;;;;;;18.50;45.00;;;;;;1591610;73;655;-74
2024/02/20 08:37:49;;;;;;;;;;;18.50;44.90;;;;;;1590132;73;1950;-71
2024/02/20 08:39:51;;;;;;;;;;;18.40;44.80;;;;;;1592804;73;1163;-71
2024/02/20 08:41:53;;;;;;;;;;;18.50;44.90;;;;;;1592341;73;758;-73
2024/02/20 08:43:55;;;;;;;;;;;18.40;44.70;;;;;;1593790;73;645;-75
2024/02/20 08:45:57;;;;;;;;;;;18.40;44.80;;;;;;1594019;73;589;-74
2024/02/20 08:48:01;;;;;;;;;;;18.50;45.00;;;;;;1594775;73;735;-73
2024/02/20 08:50:03;;;;;;;;;;;18.50;44.90;;;;;;1593216;73;1185;-74
2024/02/20 08:52:05;;;;;;;;;;;18.40;44.80;;;;;;1586861;73;685;-74
2024/02/20 08:54:07;;;;;;;;;;;18.50;44.90;;;;;;1592128;73;1458;-72
2024/02/20 08:56:09;;;;;;;;;;;18.40;44.80;;;;;;1592732;73;646;-71
2024/02/20 08:58:11;;;;;;;;;;;18.50;45.00;;;;;;1592986;73;1945;-72
2024/02/20 09:00:13;;;;;;;;;;;18.50;45.00;;;;;;1586628;73;1116;-71
2024/02/20 09:02:15;;;;;;;;;;;18.40;44.80;;;;;;1590540;73;629;-72
2024/02/20 09:04:18;;;;;;;;;;;18.40;44.80;;;;;;1592700;73;720;-70
2024/02/20 09:06:19;;;;;;;;;;;18.40;44.80;;;;;;1589144;73;669;-71
2024/02/20 09:08:21;;;;;;;;;;;18.40;44.80;;;;;;1591774;73;665;-71
2024/02/20 09:10:24;;;;;;;;;;;18.50;45.00;;;;;;1594802;73;1120;-75
2024/02/20 09:12:26;;;;;;;;;;;18.50;45.00;;;;;;1592220;73;792;-72
2024/02/20 09:14:28;;;;;;;;;;;18.40;44.80;;;;;;1599155;73;677;-74
2024/02/20 09:16:30;;;;;;;;;;;18.50;44.90;;;;;;1592821;73;1933;-74
2024/02/20 09:18:35;;;;;;;;;;;18.50;44.90;;;;;;1591618;73;701;-75
2024/02/20 09:20:37;;;;;;;;;;;18.50;44.90;;;;;;1591784;73;692;-72
2024/02/20 09:22:39;;;;;;;;;;;18.40;44.70;;;;;;1590884;73;731;-72
2024/02/20 09:24:40;;;;;;;;;;;18.40;44.80;;;;;;1591011;73;719;-71
2024/02/20 09:26:43;;;;;;;;;;;18.40;44.80;;;;;;1590675;73;661;-72
2024/02/20 09:28:45;;;;;;;;;;;18.40;44.80;;;;;;1592319;73;1142;-73
2024/02/20 09:30:46;;;;;;;;;;;18.50;45.00;;;;;;1593454;73;720;-72
2024/02/20 09:32:48;;;;;;;;;;;18.40;44.80;;;;;;1592763;73;691;-74
2024/02/20 09:34:50;;;;;;;;;;;18.40;44.80;;;;;;1584425;73;756;-74
2024/02/20 09:36:52;;;;;;;;;;;18.40;44.80;;;;;;1592375;73;1909;-72
2024/02/20 09:38:54;;;;;;;;;;;18.50;44.90;;;;;;1593564;73;1120;-71
2024/02/20 09:40:56;;;;;;;;;;;18.50;44.90;;;;;;1589640;73;692;-73
2024/02/20 09:42:59;;;;;;;;;;;18.50;44.90;;;;;;1591479;73;703;-73
2024/02/20 09:45:01;;;;;;;;;;;18.40;44.70;;;;;;1595440;73;688;-75
2024/02/20 09:47:03;;;;;;;;;;;18.50;44.80;;;;;;1586079;73;1219;-73
2024/02/20 09:49:05;;;;;;;;;;;18.50;44.90;;;;;;1593113;73;1196;-73
2024/02/20 09:51:07;;;;;;;;;;;18.40;44.70;;;;;;1592968;73;1465;-73
2024/02/20 09:53:08;;;;;;;;;;;18.40;44.70;;;;;;1560947;74;574;-72
2024/02/20 09:55:10;;;;;;;;;;;18.40;44.70;;;;;;1592193;73;736;-71
2024/02/20 09:57:13;;;;;;;;;;;18.50;44.90;;;;;;1591164;73;1917;-74
2024/02/20 09:59:15;;;;;;;;;;;18.50;44.90;;;;;;1592216;73;1149;-72
2024/02/20 10:01:17;;;;;;;;;;;18.50;44.80;;;;;;1596489;73;702;-73
2024/02/20 10:03:19;;;;;;;;;;;18.50;44.80;;;;;;1588750;73;929;-73
2024/02/20 10:05:21;;;;;;;;;;;18.50;44.80;;;;;;1586094;73;638;-72
2024/02/20 10:07:23;;;;;;;;;;;18.50;44.80;;;;;;1591422;73;648;-74
2024/02/20 10:09:25;;;;;;;;;;;18.50;44.80;;;;;;1590071;73;1166;-74
2024/02/20 10:11:26;;;;;;;;;;;18.50;44.80;;;;;;1598435;73;650;-73
2024/02/20 10:13:28;;;;;;;;;;;18.40;44.70;;;;;;1589750;73;614;-71
2024/02/20 10:15:30;;;;;;;;;;;18.40;44.70;;;;;;1591549;73;651;-73
2024/02/20 10:17:32;;;;;;;;;;;18.40;44.70;;;;;;1593821;73;1911;-73
2024/02/20 10:19:34;;;;;;;;;;;18.40;44.60;;;;;;1591284;73;1203;-71
2024/02/20 10:21:36;;;;;;;;;;;18.50;44.80;;;;;;1586601;73;664;-72
2024/02/20 10:23:39;;;;;;;;;;;18.40;44.60;;;;;;1596585;73;728;-73
2024/02/20 10:25:40;;;;;;;;;;;18.50;44.80;;;;;;1591460;73;590;-72
2024/02/20 10:27:43;;;;;;;;;;;18.50;44.80;;;;;;1590321;73;682;-74
2024/02/20 10:29:45;;;;;;;;;;;18.50;44.80;;;;;;1591388;73;1147;-75
2024/02/20 10:31:47;;;;;;;;;;;18.40;44.60;;;;;;1588242;73;663;-72
2024/02/20 10:33:52;;;;;;;;;;;18.50;44.70;;;;;;1590402;73;730;-74
2024/02/20 10:36:03;;;;;;;;;;;18.50;44.80;;;;;;1587010;73;752;-74
2024/02/20 10:38:04;;;;;;;;;;;18.50;44.70;;;;;;1591488;73;1909;-73
2024/02/20 10:40:08;;;;;;;;;;;18.50;44.70;;;;;;1591714;73;1136;-73
2024/02/20 10:42:10;;;;;;;;;;;18.40;44.70;;;;;;1591697;73;730;-72
2024/02/20 10:44:12;;;;;;;;;;;18.50;44.70;;;;;;1595515;73;707;-74
2024/02/20 10:46:14;;;;;;;;;;;18.50;44.80;;;;;;1593243;73;591;-73
2024/02/20 10:48:16;;;;;;;;;;;18.50;44.70;;;;;;1594545;73;1442;-75
2024/02/20 10:50:18;;;;;;;;;;;18.50;44.70;;;;;;1592362;73;1133;-75
2024/02/20 10:52:20;;;;;;;;;;;18.50;44.70;;;;;;1593154;73;582;-74
2024/02/20 10:54:22;;;;;;;;;;;18.50;44.70;;;;;;1593455;73;674;-74
2024/02/20 10:56:23;;;;;;;;;;;18.50;44.70;;;;;;1588373;73;655;-73
2024/02/20 10:58:25;;;;;;;;;;;18.40;44.60;;;;;;1567148;74;1926;-73
2024/02/20 11:00:27;;;;;;;;;;;18.50;44.70;;;;;;1588992;73;1108;-74
2024/02/20 11:02:31;;;;;;;;;;;18.50;44.70;;;;;;1593409;73;713;-74
2024/02/20 11:04:32;;;;;;;;;;;18.50;44.60;;;;;;1589779;73;730;-73
2024/02/20 11:06:34;;;;;;;;;;;18.40;44.50;;;;;;1599061;73;724;-75
2024/02/20 11:08:36;;;;;;;;;;;18.50;44.60;;;;;;1591379;73;648;-71
2024/02/20 11:10:38;;;;;;;;;;;18.40;44.50;;;;;;1593387;73;681;-73
2024/02/20 11:12:40;;;;;;;;;;;18.50;44.70;;;;;;1589608;73;632;-72
2024/02/20 11:14:42;;;;;;;;;;;18.50;44.60;;;;;;1590491;73;699;-72
2024/02/20 11:16:44;;;;;;;;;;;18.40;44.50;;;;;;1590113;73;648;-72
2024/02/20 11:18:55;;;;;;;;;;;18.40;44.60;;;;;;1592059;73;1942;-74
2024/02/20 11:21:05;;;;;;;;;;;18.40;44.50;;;;;;1583190;73;616;-72
2024/02/20 11:23:11;;;;;;;;;;;18.40;44.50;;;;;;1592843;73;625;-73
2024/02/20 11:25:12;;;;;;;;;;;18.50;44.70;;;;;;1591732;73;1583;-71
2024/02/20 11:27:16;;;;;;;;;;;18.50;44.70;;;;;;1589148;73;1151;-71
2024/02/20 11:29:27;;;;;;;;;;;18.40;44.60;;;;;;1586258;73;1885;-74
2024/02/20 11:31:29;;;;;;;;;;;18.40;44.50;;;;;;1588903;73;673;-74
2024/02/20 11:33:31;;;;;;;;;;;18.40;44.50;;;;;;1589995;73;725;-72
2024/02/20 11:35:34;;;;;;;;;;;18.40;44.50;;;;;;1589760;73;637;-75
2024/02/20 11:37:35;;;;;;;;;;;18.50;44.70;;;;;;1589907;73;1915;-72
2024/02/20 11:39:39;;;;;;;;;;;18.50;44.70;;;;;;1560008;74;1293;-72
2024/02/20 11:41:40;;;;;;;;;;;18.40;44.50;;;;;;1591504;73;710;-71
2024/02/20 11:43:42;;;;;;;;;;;18.50;44.60;;;;;;1592149;73;1462;-71
2024/02/20 11:45:44;;;;;;;;;;;18.40;44.50;;;;;;1590913;73;590;-72
2024/02/20 11:48:04;;;;;;;;;;;18.40;44.60;;;;;;1586050;73;667;-74
2024/02/20 11:50:06;;;;;;;;;;;18.50;44.60;;;;;;1590936;73;1183;-75
2024/02/20 11:52:08;;;;;;;;;;;18.50;44.60;;;;;;1589000;73;634;-71
2024/02/20 11:54:10;;;;;;;;;;;18.40;44.50;;;;;;1594331;73;717;-72
2024/02/20 11:56:13;;;;;;;;;;;18.50;44.60;;;;;;1591738;73;586;-73
2024/02/20 11:58:19;;;;;;;;;;;18.40;44.40;;;;;;1590472;73;1940;-71
2024/02/20 12:00:24;;;;;;;;;;;18.40;44.40;;;;;;1589485;73;1100;-73
2024/02/20 12:02:26;;;;;;;;;;;18.40;44.40;;;;;;1599167;73;709;-75
2024/02/20 12:04:28;;;;;;;;;;;18.40;44.40;;;;;;1590311;73;668;-76
2024/02/20 12:06:32;;;;;;;;;;;18.50;44.50;;;;;;1590925;73;741;-73
2024/02/20 12:08:41;;;;;;;;;;;18.50;44.50;;;;;;1592155;73;575;-73